South Mason Valley, Nevada Weather observations

Data are for 10 minute period ending at time listed.
 Day   Time   Solar   Ave.   Ave.  Ave.  Vector  Max.   Baro.   Total    
  of    of     Rad.   Air    Rel.  Wind   Wind   Wind  Press.  Precip.   
Year   Day            Temp.  Hum.  Speed  Dir.   Gust                    
2016   (PST)  Kw/m2    F      %     mph   deg.    mph    mb.     in.     
-------------------------------------------------------------------------
 177   11:50   0.80   81.4    16    4.1    50     8.0   883.1    0.00 
 177   12:00   0.78   81.2    17    1.6   328     2.9   882.9    0.00 
 177   12:10   0.81   81.8    14    3.9   143     7.8   882.7    0.00 
 177   12:20   0.81   82.7    11    4.8   135    10.6   882.6    0.00 
 177   12:30   0.79   83.2    11    3.4   184     6.0   882.6    0.00 
 177   12:40   0.80   84.0    12    2.2   183     5.4   882.5    0.00 
 177   12:50   0.79   84.1    11    2.7   207     6.3   882.4    0.00 
 177   13:00   0.78   84.1    12    1.7   198     4.8   882.2    0.00 
 177   13:10   0.78   84.9    15    3.1    85     9.0   882.1    0.00 
 177   13:20   0.77   85.1    13    2.7   110     7.5   882.0    0.00 
 177   13:30   0.76   85.1    13    4.1    88     7.5   881.8    0.00 
 177   13:40   0.74   85.1    11    3.6   132     7.0   881.7    0.00 
 177   13:50   0.73   85.8    11    2.8   158     5.3   881.6    0.00 
 177   14:00   0.72   86.6    10    2.1   184     5.8   881.5    0.00 
 177   14:10   0.70   86.8    13    1.1   334     2.6   881.4    0.00 
 177   14:20   0.69   87.2    13    1.9    94     8.8   881.3    0.00 
 177   14:30   0.66   87.2    10    3.5   140     7.2   881.1    0.00 
 177   14:40   0.65   87.8    13    1.0    57     5.6   881.0    0.00 
 177   14:50   0.61   87.3    16    3.0   302     6.1   880.8    0.00 
 177   15:00   0.60   86.2    14    2.0    10     5.3   880.7    0.00 
 177   15:10   0.59   86.0    20    3.1   322     5.7   880.6    0.00 
 177   15:20   0.57   85.6    19    2.0     4     4.0   880.4    0.00 
 177   15:30   0.54   86.2    17    2.5     0     7.7   880.4    0.00 
 177   15:40   0.53   85.0    18    2.2     4     3.8   880.2    0.00 
 177   15:50   0.50   86.5    13    1.4    14     4.3   880.1    0.00 
 177   16:00   0.48   87.5    13    2.3   319     6.6   880.0    0.00 
 177   16:10   0.46   85.3    15    3.3    36     6.4   879.9    0.00 
 177   16:20   0.43   87.3     9    1.4    84     4.6   879.8    0.00 
 177   16:30   0.41   88.2    13    2.6    43     5.8   879.7    0.00 
 177   16:40   0.38   86.8    12    2.4    50     5.3   879.7    0.00 
 177   16:50   0.35   87.5    12    1.4    48     3.4   879.6    0.00 
 177   17:00   0.33   88.5    14    1.0   349     3.6   879.5    0.00 
 177   17:10   0.30   88.5    17    1.3   334     2.6   879.4    0.00 
 177   17:20   0.27   87.3    16    1.9    13     4.5   879.4    0.00 
 177   17:30   0.25   84.4    20    3.9    19     5.7   879.3    0.00 
 177   17:40   0.22   81.9    19    4.3    17     6.9   879.2    0.00 
 177   17:50   0.19   81.4    20    4.3    18     6.6   879.2    0.00 
 177   18:00   0.17   81.0    19    4.4    20     6.9   879.3    0.00 
 177   18:10   0.14   80.7    20    3.9    12     5.4   879.4    0.00 
 177   18:20   0.12   80.5    21    3.7    12     5.9   879.4    0.00 
 177   18:30   0.10   79.9    20    3.7    24     5.3   879.5    0.00 
 177   18:40   0.08   78.7    19    4.7    21     6.6   879.5    0.00 
 177   18:50   0.06   78.0    19    3.2    26     4.6   879.6    0.00 
 177   19:00   0.04   77.7    18    3.4    23     5.6   879.7    0.00 
 177   19:10   0.03   77.8    15    2.5    30     3.9   879.7    0.00 
 177   19:20   0.02   78.8    12    1.5    53     3.4   879.8    0.00 
 177   19:30   0.01   79.2    11    1.5    30     2.2   879.8    0.00 
 177   19:40   0.00   78.4    12    1.7    19     2.4   879.9    0.00 
 177   19:50   0.00   75.7    18    0.4    19     1.3   879.8    0.00 
 177   20:00   0.00   72.4    16    0.0    18     0.4   879.8    0.00 
 177   20:10   0.00   72.6    19    0.2   317     1.6   879.8    0.00 
 177   20:20   0.00   71.4    21    0.0   317     1.1   879.9    0.00 
 177   20:30   0.00   70.8    22    1.5   313     2.4   879.9    0.00 
 177   20:40   0.00   69.3    27    2.3   290     2.6   880.0    0.00 
 177   20:50   0.00   67.0    31    2.3   287     2.8   880.0    0.00 
 177   21:00   0.00   66.0    34    2.5   280     3.1   880.1    0.00 
 177   21:10   0.00   63.2    44    2.6   291     2.9   880.1    0.00 
 177   21:20   0.00   61.8    46    2.9   298     3.4   880.1    0.00 
 177   21:30   0.00   62.3    46    2.8   299     3.4   880.1    0.00 
 177   21:40   0.00   61.6    49    2.9   306     3.3   880.2    0.00 
 177   21:50   0.00   60.7    49    3.1   294     3.8   880.2    0.00 
 177   22:00   0.00   60.4    49    3.1   305     3.7   880.2    0.00 
 177   22:10   0.00   58.8    54    3.8   306     4.7   880.2    0.00 
 177   22:20   0.00   57.1    57    4.8   308     5.3   880.2    0.00 
 177   22:30   0.00   56.5    54    3.1   277     4.7   880.3    0.00 
 177   22:40   0.00   57.3    44    0.1   198     0.7   880.3    0.00 
 177   22:50   0.00   58.5    44    1.4   104     2.8   880.3    0.00 
 177   23:00   0.00   58.5    47    0.4    68     2.5   880.3    0.00 
 177   23:10   0.00   58.2    43    0.5    68     1.0   880.3    0.00 
 177   23:20   0.00   58.4    46    3.0   351     4.2   880.3    0.00 
 177   23:30   0.00   60.0    39    4.0   338     5.9   880.3    0.00 
 177   23:40   0.00   58.1    44    4.7   319     6.6   880.3    0.00 
 177   23:50   0.00   57.0    46    3.0   328     4.7   880.4    0.00 
 178    0:00   0.00   58.7    37    1.7   319     3.1   880.4    0.00 
 178    0:10   0.00   59.9    32    1.9   314     3.2   880.4    0.00 
 178    0:20   0.00   60.6    31    2.9   313     3.3   880.4    0.00 
 178    0:30   0.00   60.0    31    2.6   310     3.1   880.4    0.00 
 178    0:40   0.00   60.7    28    2.6   305     3.4   880.3    0.00 
 178    0:50   0.00   60.0    32    3.3   298     4.0   880.3    0.00 
 178    1:00   0.00   57.3    42    2.3   162     6.3   880.4    0.00 
 178    1:10   0.00   54.3    50    2.7   181     4.2   880.6    0.00 
 178    1:20   0.00   52.2    56    3.2   163     4.5   880.6    0.00 
 178    1:30   0.00   51.8    62    1.9   169     3.0   880.6    0.00 
 178    1:40   0.00   51.5    58    1.8   206     2.6   880.6    0.00 
 178    1:50   0.00   52.2    54    0.9   220     1.7   880.6    0.00 
 178    2:00   0.00   53.3    54    0.0     0     0.0   880.6    0.00 
 178    2:10   0.00   52.3    56    0.2   221     0.9   880.6    0.00 
 178    2:20   0.00   52.8    50    2.2   307     3.1   880.6    0.00 
 178    2:30   0.00   53.0    49    1.1   327     2.2   880.8    0.00 
 178    2:40   0.00   54.4    49    1.8   320     2.3   880.8    0.00 
 178    2:50   0.00   53.1    57    2.7   303     3.7   880.8    0.00 
 178    3:00   0.00   50.8    61    4.7   297     5.8   881.0    0.00 
 178    3:10   0.00   49.9    62    3.5   298     6.1   881.0    0.00 
 178    3:20   0.00   49.8    59    1.6   284     2.3   881.1    0.00 
 178    3:30   0.00   50.8    54    0.3   297     1.5   881.2    0.00 
 178    3:40   0.00   51.1    53    0.0     0     0.0   881.2    0.00 
 178    3:50   0.00   50.4    55    0.7   236     1.3   881.2    0.00 
 178    4:00   0.00   51.4    52    1.5   272     2.3   881.3    0.00 
 178    4:10   0.00   53.2    50    2.0   317     2.9   881.4    0.00 
 178    4:20   0.00   52.9    49    0.7   322     1.8   881.4    0.00 
 178    4:30   0.00   53.8    43    0.5   322     1.0   881.5    0.00 
 178    4:40   0.01   53.2    44    0.0   322     0.6   881.5    0.00 
 178    4:50   0.01   52.5    48    0.3   322     0.9   881.6    0.00 
 178    5:00   0.04   53.8    49    1.4    47     3.1   881.7    0.00 
 178    5:10   0.05   53.1    56    2.4   158     3.7   881.8    0.00 
 178    5:20   0.07   53.1    57    2.3   184     3.2   881.9    0.00 
 178    5:30   0.09   54.1    62    1.4   209     2.1   881.9    0.00 
 178    5:40   0.12   56.8    56    0.8   196     1.5   881.9    0.00 
 178    5:50   0.14   60.0    48    0.4   191     1.0   882.0    0.00 
 178    6:00   0.17   62.1    40    1.2   191     2.1   881.9    0.00 
 178    6:10   0.19   64.3    38    0.8   210     1.5   881.9    0.00 
 178    6:20   0.22   66.2    45    0.0     0     0.0   881.9    0.00 
 178    6:30   0.24   67.5    44    0.0     0     0.0   882.0    0.00 
 178    6:40   0.27   68.5    40    0.5   286     1.8   882.0    0.00 
 178    6:50   0.29   69.4    34    0.8   317     1.5   882.0    0.00 
 178    7:00   0.32   70.5    37    1.1   315     2.0   882.2    0.00 
 178    7:10   0.34   71.6    36    1.3   304     2.6   882.3    0.00 
 178    7:20   0.37   71.9    39    2.5   327     3.9   882.5    0.00 
 178    7:30   0.40   72.0    36    2.9   334     4.0   882.7    0.00 
 178    7:40   0.42   72.8    31    1.8   328     3.6   882.7    0.00 
 178    7:50   0.45   75.3    25    1.2   315     2.4   882.8    0.00 
 178    8:00   0.47   75.6    28    2.1   337     3.8   882.9    0.00 
 178    8:10   0.49   75.6    29    1.9   337     3.6   882.9    0.00 
 178    8:20   0.52   76.5    28    2.2   324     4.5   882.9    0.00 
 178    8:30   0.54   77.1    27    1.8   305     3.4   882.9    0.00 
 178    8:40   0.56   78.0    25    2.3   352     4.6   882.8    0.00 
 178    8:50   0.58   77.3    27    3.8     3     6.1   882.8    0.00 
 178    9:00   0.60   77.6    28    3.3   346     5.8   882.8    0.00 
 178    9:10   0.62   78.3    26    3.5   359     6.1   882.8    0.00 
 178    9:20   0.64   79.0    24    2.6   349     4.5   882.7    0.00 
 178    9:30   0.66   80.3    21    2.1     5     4.2   882.7    0.00 
 178    9:40   0.68   82.5    18    1.3    20     3.1   882.7    0.00 
 178    9:50   0.69   84.0    14    1.2   302     2.6   882.7    0.00 
 178   10:00   0.71   84.7    17    0.9     5     2.5   882.6    0.00 
 178   10:10   0.72   86.2    15    1.0   347     2.7   882.5    0.00 
 178   10:20   0.73   84.9    17    2.1   326     4.7   882.4    0.00 
 178   10:30   0.74   85.0    19    1.8   328     4.0   882.4    0.00 
 178   10:40   0.75   85.2    19    3.2    27     5.4   882.2    0.00 
 178   10:50   0.76   84.8    22    2.2   348     5.6   882.1    0.00 
 178   11:00   0.77   86.5    17    2.1   311     4.0   882.0    0.00 
 178   11:10   0.78   87.5    14    0.9   322     2.0   882.0    0.00 
 178   11:20   0.79   89.0    13    1.4   294     3.1   881.9    0.00 
 178   11:30   0.79   88.6    15    1.5   316     3.8   881.9    0.00 
 178   11:40   0.79   89.2    15    1.3   302     3.3   881.8    0.00 

Return to south Mason Valley graphs page.


Western Regional Climate Center,wrcc@dri.edu